Jonestown, Texas
Current Conditions -  °F | °C
As of 12:15 PM on Thursday 27 Nov 2014 (Local Time) from KRYW Reporting Station
Clear Clear  
Wind Chill: 59°   Ceiling: Unl
Heat Index: 59°   Visibility: 10mi
Dew Point: 23°   Wind: 7mph
Humidity: 25%   Direction: 90°E
Pressure: 30.49"   Gusts: NA
Location:  30.4521°N, 97.9683°W
Report Text: KRYW 271815Z AUTO 09006KT 10SM CLR 15/M05 A3049 RMK AO2 T01521050
Loading
Personal Weather Stations






























Interactive Weather Map New forecast layout! Learn more

10-Day Weather Forecast

Advertisements
Track Severe Weather on mobile